Terminal Aerodrome Forecast
Issued by NWS

Home | Current Version | Previous Version | Text Only | Print | Product List | Glossary On
Versions: 1 2 3 4 5 6 7 8 9 10 11 12 13 14
040
FTUS46 KSTO 212327
TAFSCK
TAF
KSCK 212327Z 2200/2224 VRB03KT P6SM BKN250
     FM220600 VRB03KT 4SM BR SCT250
     FM220800 VRB03KT 2SM BR SCT250
     FM221400 00000KT 1/4SM FG VV001
     FM222000 VRB03KT 1 1/2SM BR SCT250
     FM222200 VRB03KT 4SM HZ BKN250=

USA.gov is the U.S. government's official web portal to all federal, state and local government web resources and services.